sensor_id;sensor_type;location;lat;lon;timestamp;noise_LAeq;noise_LA_min;noise_LA_max;noise_LA01;noise_LA95
49568;Laerm;35474;51.032;6.998;2024-01-06T00:01:16;61.71;43.14;76.62;;
49568;Laerm;35474;51.032;6.998;2024-01-06T00:03:43;59.27;41.22;74.23;;
49568;Laerm;35474;51.032;6.998;2024-01-06T00:06:14;59.59;41.89;76.03;;
49568;Laerm;35474;51.032;6.998;2024-01-06T00:08:41;58.80;42.09;71.82;;
49568;Laerm;35474;51.032;6.998;2024-01-06T00:11:08;59.26;41.61;74.38;;
49568;Laerm;35474;51.032;6.998;2024-01-06T00:13:36;61.14;43.54;80.63;;
49568;Laerm;35474;51.032;6.998;2024-01-06T00:16:03;63.07;41.96;86.61;;
49568;Laerm;35474;51.032;6.998;2024-01-06T00:18:30;61.96;42.09;77.89;;
49568;Laerm;35474;51.032;6.998;2024-01-06T00:20:57;60.50;42.42;82.20;;
49568;Laerm;35474;51.032;6.998;2024-01-06T00:23:24;62.09;43.58;86.64;;
49568;Laerm;35474;51.032;6.998;2024-01-06T00:25:51;60.86;43.04;76.59;;
49568;Laerm;35474;51.032;6.998;2024-01-06T00:28:18;59.47;41.14;83.81;;
49568;Laerm;35474;51.032;6.998;2024-01-06T00:30:45;59.73;41.22;70.70;;
49568;Laerm;35474;51.032;6.998;2024-01-06T00:33:12;56.85;41.30;72.72;;
49568;Laerm;35474;51.032;6.998;2024-01-06T00:35:39;59.19;41.89;68.74;;
49568;Laerm;35474;51.032;6.998;2024-01-06T00:38:06;57.71;41.82;77.06;;
49568;Laerm;35474;51.032;6.998;2024-01-06T00:40:32;62.56;42.76;75.83;;
49568;Laerm;35474;51.032;6.998;2024-01-06T00:42:59;64.03;45.14;84.54;;
49568;Laerm;35474;51.032;6.998;2024-01-06T00:45:27;58.72;42.35;76.34;;
49568;Laerm;35474;51.032;6.998;2024-01-06T00:47:54;58.55;42.41;71.37;;
49568;Laerm;35474;51.032;6.998;2024-01-06T00:50:26;59.34;41.61;75.75;;
49568;Laerm;35474;51.032;6.998;2024-01-06T00:52:53;61.06;42.59;77.41;;
49568;Laerm;35474;51.032;6.998;2024-01-06T00:55:20;58.70;42.41;78.58;;
49568;Laerm;35474;51.032;6.998;2024-01-06T01:00:41;61.47;42.98;81.02;;
49568;Laerm;35474;51.032;6.998;2024-01-06T01:03:09;57.45;42.53;82.48;;
49568;Laerm;35474;51.032;6.998;2024-01-06T01:05:36;59.85;42.65;76.71;;
49568;Laerm;35474;51.032;6.998;2024-01-06T01:08:04;59.18;43.09;84.49;;
49568;Laerm;35474;51.032;6.998;2024-01-06T01:10:38;63.92;45.72;85.54;;
49568;Laerm;35474;51.032;6.998;2024-01-06T01:13:06;62.47;43.99;78.39;;
49568;Laerm;35474;51.032;6.998;2024-01-06T01:15:47;56.80;43.76;71.52;;
49568;Laerm;35474;51.032;6.998;2024-01-06T01:18:14;58.67;41.30;82.44;;
49568;Laerm;35474;51.032;6.998;2024-01-06T01:20:54;60.11;41.38;73.08;;
49568;Laerm;35474;51.032;6.998;2024-01-06T01:23:21;60.51;41.46;73.53;;
49568;Laerm;35474;51.032;6.998;2024-01-06T01:25:48;61.51;41.61;76.86;;
49568;Laerm;35474;51.032;6.998;2024-01-06T01:28:15;57.49;41.38;76.67;;
49568;Laerm;35474;51.032;6.998;2024-01-06T01:30:42;54.75;40.89;80.30;;
49568;Laerm;35474;51.032;6.998;2024-01-06T01:33:09;59.97;42.13;79.05;;
49568;Laerm;35474;51.032;6.998;2024-01-06T01:35:35;56.61;42.93;85.24;;
49568;Laerm;35474;51.032;6.998;2024-01-06T01:38:02;58.83;41.68;84.70;;
49568;Laerm;35474;51.032;6.998;2024-01-06T01:40:29;58.92;42.53;70.00;;
49568;Laerm;35474;51.032;6.998;2024-01-06T01:42:57;57.58;42.82;74.36;;
49568;Laerm;35474;51.032;6.998;2024-01-06T01:45:26;54.93;42.65;77.71;;
49568;Laerm;35474;51.032;6.998;2024-01-06T01:47:53;54.38;42.59;73.89;;
49568;Laerm;35474;51.032;6.998;2024-01-06T01:50:20;61.28;42.03;80.48;;
49568;Laerm;35474;51.032;6.998;2024-01-06T01:52:52;51.26;42.00;80.95;;
49568;Laerm;35474;51.032;6.998;2024-01-06T01:55:19;48.77;42.47;63.29;;
49568;Laerm;35474;51.032;6.998;2024-01-06T01:57:46;60.70;42.98;76.00;;
49568;Laerm;35474;51.032;6.998;2024-01-06T02:00:23;59.24;42.76;71.98;;
49568;Laerm;35474;51.032;6.998;2024-01-06T02:02:52;57.79;43.09;73.97;;
49568;Laerm;35474;51.032;6.998;2024-01-06T02:05:19;62.86;43.19;84.89;;
49568;Laerm;35474;51.032;6.998;2024-01-06T02:07:47;56.21;42.82;72.29;;
49568;Laerm;35474;51.032;6.998;2024-01-06T02:10:17;60.72;42.95;83.25;;
49568;Laerm;35474;51.032;6.998;2024-01-06T02:12:44;58.48;41.89;73.00;;
49568;Laerm;35474;51.032;6.998;2024-01-06T02:15:10;56.97;43.04;72.06;;
49568;Laerm;35474;51.032;6.998;2024-01-06T02:17:37;61.40;42.59;71.81;;
49568;Laerm;35474;51.032;6.998;2024-01-06T02:20:07;58.16;41.38;74.48;;
49568;Laerm;35474;51.032;6.998;2024-01-06T02:22:35;56.03;40.89;74.74;;
49568;Laerm;35474;51.032;6.998;2024-01-06T02:25:05;58.05;41.26;70.71;;
49568;Laerm;35474;51.032;6.998;2024-01-06T02:27:39;57.95;42.53;78.02;;
49568;Laerm;35474;51.032;6.998;2024-01-06T02:30:06;58.23;41.30;73.61;;
49568;Laerm;35474;51.032;6.998;2024-01-06T02:32:34;59.18;39.08;77.80;;
49568;Laerm;35474;51.032;6.998;2024-01-06T02:35:01;55.16;41.06;77.30;;
49568;Laerm;35474;51.032;6.998;2024-01-06T02:37:27;57.13;39.92;70.93;;
49568;Laerm;35474;51.032;6.998;2024-01-06T02:39:54;56.61;40.13;80.90;;
49568;Laerm;35474;51.032;6.998;2024-01-06T02:42:20;59.77;41.30;72.88;;
49568;Laerm;35474;51.032;6.998;2024-01-06T02:44:47;59.83;41.61;82.38;;
49568;Laerm;35474;51.032;6.998;2024-01-06T02:47:14;48.30;40.98;74.68;;
49568;Laerm;35474;51.032;6.998;2024-01-06T02:49:43;56.52;41.96;69.91;;
49568;Laerm;35474;51.032;6.998;2024-01-06T02:52:09;54.54;42.03;71.60;;
49568;Laerm;35474;51.032;6.998;2024-01-06T02:54:36;57.44;41.22;74.79;;
49568;Laerm;35474;51.032;6.998;2024-01-06T02:57:02;58.63;40.62;77.76;;
49568;Laerm;35474;51.032;6.998;2024-01-06T02:59:29;55.11;41.53;69.12;;
49568;Laerm;35474;51.032;6.998;2024-01-06T03:01:56;49.89;41.14;79.07;;
49568;Laerm;35474;51.032;6.998;2024-01-06T03:04:23;47.30;41.89;71.39;;
49568;Laerm;35474;51.032;6.998;2024-01-06T03:06:49;57.07;41.46;70.44;;
49568;Laerm;35474;51.032;6.998;2024-01-06T03:09:19;59.46;40.43;72.35;;
49568;Laerm;35474;51.032;6.998;2024-01-06T03:11:46;49.12;41.22;72.77;;
49568;Laerm;35474;51.032;6.998;2024-01-06T03:14:13;54.89;40.53;75.56;;
49568;Laerm;35474;51.032;6.998;2024-01-06T03:16:39;47.74;40.62;68.41;;
49568;Laerm;35474;51.032;6.998;2024-01-06T03:19:07;58.20;41.75;75.86;;
49568;Laerm;35474;51.032;6.998;2024-01-06T03:21:34;56.04;41.14;79.75;;
49568;Laerm;35474;51.032;6.998;2024-01-06T03:24:00;55.86;41.14;72.47;;
49568;Laerm;35474;51.032;6.998;2024-01-06T03:26:27;44.79;40.80;59.93;;
49568;Laerm;35474;51.032;6.998;2024-01-06T03:28:59;57.16;40.53;75.79;;
49568;Laerm;35474;51.032;6.998;2024-01-06T03:31:29;50.84;41.14;73.34;;
49568;Laerm;35474;51.032;6.998;2024-01-06T03:33:56;54.52;41.30;69.95;;
49568;Laerm;35474;51.032;6.998;2024-01-06T03:36:24;59.27;40.62;74.11;;
49568;Laerm;35474;51.032;6.998;2024-01-06T03:38:50;51.53;41.30;66.12;;
49568;Laerm;35474;51.032;6.998;2024-01-06T03:41:17;55.67;41.46;79.07;;
49568;Laerm;35474;51.032;6.998;2024-01-06T03:43:43;55.02;41.22;69.80;;
49568;Laerm;35474;51.032;6.998;2024-01-06T03:46:10;59.25;42.09;76.68;;
49568;Laerm;35474;51.032;6.998;2024-01-06T03:48:36;48.83;41.14;61.12;;
49568;Laerm;35474;51.032;6.998;2024-01-06T03:51:03;57.51;42.22;72.84;;
49568;Laerm;35474;51.032;6.998;2024-01-06T03:53:30;57.21;42.47;70.53;;
49568;Laerm;35474;51.032;6.998;2024-01-06T03:55:56;55.72;40.53;75.06;;
49568;Laerm;35474;51.032;6.998;2024-01-06T03:58:24;54.49;42.59;70.55;;
49568;Laerm;35474;51.032;6.998;2024-01-06T04:00:51;53.91;41.89;68.44;;
49568;Laerm;35474;51.032;6.998;2024-01-06T04:03:17;57.64;42.35;70.00;;
49568;Laerm;35474;51.032;6.998;2024-01-06T04:05:44;61.71;43.09;71.88;;
49568;Laerm;35474;51.032;6.998;2024-01-06T04:08:12;56.93;42.93;70.19;;
49568;Laerm;35474;51.032;6.998;2024-01-06T04:10:38;58.61;42.53;69.13;;
49568;Laerm;35474;51.032;6.998;2024-01-06T04:13:05;53.94;42.76;67.48;;
49568;Laerm;35474;51.032;6.998;2024-01-06T04:15:32;62.15;42.35;72.54;;
49568;Laerm;35474;51.032;6.998;2024-01-06T04:18:04;54.42;42.53;68.69;;
49568;Laerm;35474;51.032;6.998;2024-01-06T04:20:31;58.09;42.88;69.54;;
49568;Laerm;35474;51.032;6.998;2024-01-06T04:22:58;57.21;42.41;70.61;;
49568;Laerm;35474;51.032;6.998;2024-01-06T04:25:25;56.75;42.53;67.75;;
49568;Laerm;35474;51.032;6.998;2024-01-06T04:30:19;57.77;42.22;74.69;;
49568;Laerm;35474;51.032;6.998;2024-01-06T04:32:47;57.77;42.22;74.69;;
49568;Laerm;35474;51.032;6.998;2024-01-06T04:35:15;58.73;43.19;79.14;;
49568;Laerm;35474;51.032;6.998;2024-01-06T04:37:41;61.53;43.58;73.96;;
49568;Laerm;35474;51.032;6.998;2024-01-06T04:40:08;62.08;43.81;77.80;;
49568;Laerm;35474;51.032;6.998;2024-01-06T04:42:36;62.16;43.46;74.09;;
49568;Laerm;35474;51.032;6.998;2024-01-06T04:45:04;62.44;43.54;74.91;;
49568;Laerm;35474;51.032;6.998;2024-01-06T04:47:30;61.00;42.35;72.42;;
49568;Laerm;35474;51.032;6.998;2024-01-06T04:49:57;62.32;42.22;71.25;;
49568;Laerm;35474;51.032;6.998;2024-01-06T04:52:23;63.16;41.89;74.74;;
49568;Laerm;35474;51.032;6.998;2024-01-06T04:54:52;59.74;40.62;71.26;;
49568;Laerm;35474;51.032;6.998;2024-01-06T04:57:19;50.14;40.13;65.69;;
49568;Laerm;35474;51.032;6.998;2024-01-06T04:59:47;55.50;39.70;67.04;;
49568;Laerm;35474;51.032;6.998;2024-01-06T05:02:14;43.49;39.46;64.36;;
49568;Laerm;35474;51.032;6.998;2024-01-06T05:04:40;62.15;40.71;73.24;;
49568;Laerm;35474;51.032;6.998;2024-01-06T05:07:07;43.46;39.08;62.26;;
49568;Laerm;35474;51.032;6.998;2024-01-06T05:09:33;61.59;41.46;75.49;;
49568;Laerm;35474;51.032;6.998;2024-01-06T05:12:00;66.37;43.14;84.76;;
49568;Laerm;35474;51.032;6.998;2024-01-06T05:14:27;65.16;42.41;84.04;;
49568;Laerm;35474;51.032;6.998;2024-01-06T05:16:53;61.59;41.53;78.32;;
49568;Laerm;35474;51.032;6.998;2024-01-06T05:19:20;64.48;41.68;88.35;;
49568;Laerm;35474;51.032;6.998;2024-01-06T05:21:48;62.77;39.58;80.73;;
49568;Laerm;35474;51.032;6.998;2024-01-06T05:24:15;59.29;39.46;73.39;;
49568;Laerm;35474;51.032;6.998;2024-01-06T05:26:41;55.54;38.21;68.24;;
49568;Laerm;35474;51.032;6.998;2024-01-06T05:29:08;57.82;39.08;70.10;;
49568;Laerm;35474;51.032;6.998;2024-01-06T05:31:34;63.44;41.96;75.69;;
49568;Laerm;35474;51.032;6.998;2024-01-06T05:34:01;60.92;39.46;71.53;;
49568;Laerm;35474;51.032;6.998;2024-01-06T05:36:28;59.86;39.81;71.67;;
49568;Laerm;35474;51.032;6.998;2024-01-06T05:38:56;58.92;39.92;70.04;;
49568;Laerm;35474;51.032;6.998;2024-01-06T05:41:22;63.47;44.35;70.99;;
49568;Laerm;35474;51.032;6.998;2024-01-06T05:43:49;64.65;40.13;76.54;;
49568;Laerm;35474;51.032;6.998;2024-01-06T05:46:23;64.40;38.95;82.38;;
49568;Laerm;35474;51.032;6.998;2024-01-06T05:48:50;62.59;41.03;76.48;;
49568;Laerm;35474;51.032;6.998;2024-01-06T05:51:17;62.65;41.38;73.75;;
49568;Laerm;35474;51.032;6.998;2024-01-06T05:53:43;62.96;40.43;77.93;;
49568;Laerm;35474;51.032;6.998;2024-01-06T05:56:10;61.86;41.75;77.97;;
49568;Laerm;35474;51.032;6.998;2024-01-06T05:58:37;58.86;39.08;75.15;;
49568;Laerm;35474;51.032;6.998;2024-01-06T06:01:05;59.70;40.13;74.06;;
49568;Laerm;35474;51.032;6.998;2024-01-06T06:03:32;59.84;42.93;69.49;;
49568;Laerm;35474;51.032;6.998;2024-01-06T06:05:58;62.59;41.06;74.64;;
49568;Laerm;35474;51.032;6.998;2024-01-06T06:08:25;61.07;39.08;76.67;;
49568;Laerm;35474;51.032;6.998;2024-01-06T06:10:52;62.11;39.81;77.48;;
49568;Laerm;35474;51.032;6.998;2024-01-06T06:13:28;63.36;40.33;72.72;;
49568;Laerm;35474;51.032;6.998;2024-01-06T06:15:55;61.77;40.89;71.47;;
49568;Laerm;35474;51.032;6.998;2024-01-06T06:18:22;63.93;40.89;73.68;;
49568;Laerm;35474;51.032;6.998;2024-01-06T06:20:50;64.74;43.29;73.73;;
49568;Laerm;35474;51.032;6.998;2024-01-06T06:23:16;62.33;39.34;84.46;;
49568;Laerm;35474;51.032;6.998;2024-01-06T06:25:43;61.20;41.75;70.70;;
49568;Laerm;35474;51.032;6.998;2024-01-06T06:28:09;60.39;41.38;70.04;;
49568;Laerm;35474;51.032;6.998;2024-01-06T06:30:36;59.65;39.08;72.29;;
49568;Laerm;35474;51.032;6.998;2024-01-06T06:33:03;62.95;41.38;72.45;;
49568;Laerm;35474;51.032;6.998;2024-01-06T06:35:30;58.09;40.53;70.06;;
49568;Laerm;35474;51.032;6.998;2024-01-06T06:37:56;62.73;42.29;71.03;;
49568;Laerm;35474;51.032;6.998;2024-01-06T06:40:23;61.90;41.94;72.74;;
49568;Laerm;35474;51.032;6.998;2024-01-06T06:42:50;63.88;46.50;71.47;;
49568;Laerm;35474;51.032;6.998;2024-01-06T06:45:17;58.94;40.33;71.62;;
49568;Laerm;35474;51.032;6.998;2024-01-06T06:47:49;61.18;40.71;73.47;;
49568;Laerm;35474;51.032;6.998;2024-01-06T06:50:17;59.62;41.14;71.48;;
49568;Laerm;35474;51.032;6.998;2024-01-06T06:52:44;63.44;42.98;71.77;;
49568;Laerm;35474;51.032;6.998;2024-01-06T06:55:11;62.95;43.49;72.62;;
49568;Laerm;35474;51.032;6.998;2024-01-06T06:57:38;58.91;42.41;71.64;;
49568;Laerm;35474;51.032;6.998;2024-01-06T07:00:05;59.14;41.75;69.69;;
49568;Laerm;35474;51.032;6.998;2024-01-06T07:02:33;59.82;41.06;68.66;;
49568;Laerm;35474;51.032;6.998;2024-01-06T07:05:00;64.44;41.53;75.29;;
49568;Laerm;35474;51.032;6.998;2024-01-06T07:07:27;60.62;42.90;70.88;;
49568;Laerm;35474;51.032;6.998;2024-01-06T07:09:53;60.76;43.34;71.31;;
49568;Laerm;35474;51.032;6.998;2024-01-06T07:12:20;63.61;41.22;77.35;;
49568;Laerm;35474;51.032;6.998;2024-01-06T07:14:47;61.93;41.61;75.98;;
49568;Laerm;35474;51.032;6.998;2024-01-06T07:17:13;61.57;41.61;71.82;;
49568;Laerm;35474;51.032;6.998;2024-01-06T07:19:40;60.03;41.06;70.22;;
49568;Laerm;35474;51.032;6.998;2024-01-06T07:22:06;62.97;42.53;70.40;;
49568;Laerm;35474;51.032;6.998;2024-01-06T07:24:33;61.04;45.27;70.36;;
49568;Laerm;35474;51.032;6.998;2024-01-06T07:26:59;60.53;42.03;72.74;;
49568;Laerm;35474;51.032;6.998;2024-01-06T07:32:34;63.23;46.84;71.59;;
49568;Laerm;35474;51.032;6.998;2024-01-06T07:35:01;63.03;43.99;74.02;;
49568;Laerm;35474;51.032;6.998;2024-01-06T07:37:33;63.49;43.54;73.05;;
49568;Laerm;35474;51.032;6.998;2024-01-06T07:40:00;63.36;41.46;74.98;;
49568;Laerm;35474;51.032;6.998;2024-01-06T07:42:27;65.78;42.76;81.72;;
49568;Laerm;35474;51.032;6.998;2024-01-06T07:44:54;63.85;46.30;75.37;;
49568;Laerm;35474;51.032;6.998;2024-01-06T07:47:21;62.34;44.62;72.10;;
49568;Laerm;35474;51.032;6.998;2024-01-06T07:49:47;64.65;47.14;74.23;;
49568;Laerm;35474;51.032;6.998;2024-01-06T07:52:14;64.54;45.48;72.13;;
49568;Laerm;35474;51.032;6.998;2024-01-06T07:54:41;63.88;46.93;71.91;;
49568;Laerm;35474;51.032;6.998;2024-01-06T07:57:08;64.71;44.54;74.10;;
49568;Laerm;35474;51.032;6.998;2024-01-06T07:59:35;63.31;43.04;72.86;;
49568;Laerm;35474;51.032;6.998;2024-01-06T08:02:03;63.25;43.81;72.99;;
49568;Laerm;35474;51.032;6.998;2024-01-06T08:04:29;60.75;43.81;69.53;;
49568;Laerm;35474;51.032;6.998;2024-01-06T08:06:56;64.65;49.55;71.79;;
49568;Laerm;35474;51.032;6.998;2024-01-06T08:09:23;65.65;50.62;72.74;;
49568;Laerm;35474;51.032;6.998;2024-01-06T08:11:53;64.94;44.80;73.43;;
49568;Laerm;35474;51.032;6.998;2024-01-06T08:14:20;65.52;47.36;72.69;;
49568;Laerm;35474;51.032;6.998;2024-01-06T08:16:47;63.48;46.78;72.42;;
49568;Laerm;35474;51.032;6.998;2024-01-06T08:19:13;61.99;46.69;74.02;;
49568;Laerm;35474;51.032;6.998;2024-01-06T08:21:40;67.33;46.10;83.70;;
49568;Laerm;35474;51.032;6.998;2024-01-06T08:24:07;62.64;43.68;76.60;;
49568;Laerm;35474;51.032;6.998;2024-01-06T08:26:34;64.72;46.15;79.56;;
49568;Laerm;35474;51.032;6.998;2024-01-06T08:29:01;65.68;52.87;75.16;;
49568;Laerm;35474;51.032;6.998;2024-01-06T08:31:27;65.30;49.04;72.59;;
49568;Laerm;35474;51.032;6.998;2024-01-06T08:33:54;65.58;50.65;75.58;;
49568;Laerm;35474;51.032;6.998;2024-01-06T08:36:22;65.23;48.83;72.12;;
49568;Laerm;35474;51.032;6.998;2024-01-06T08:38:48;64.84;47.72;72.42;;
49568;Laerm;35474;51.032;6.998;2024-01-06T08:41:15;65.20;45.01;74.12;;
49568;Laerm;35474;51.032;6.998;2024-01-06T08:43:41;64.99;50.61;71.51;;
49568;Laerm;35474;51.032;6.998;2024-01-06T08:46:07;65.74;46.25;76.03;;
49568;Laerm;35474;51.032;6.998;2024-01-06T08:48:36;66.84;45.36;75.13;;
49568;Laerm;35474;51.032;6.998;2024-01-06T08:51:04;65.99;54.20;72.68;;
49568;Laerm;35474;51.032;6.998;2024-01-06T08:53:32;64.97;48.87;76.36;;
49568;Laerm;35474;51.032;6.998;2024-01-06T08:55:58;65.18;48.20;73.62;;
49568;Laerm;35474;51.032;6.998;2024-01-06T08:58:25;65.09;48.57;77.22;;
49568;Laerm;35474;51.032;6.998;2024-01-06T09:00:52;64.94;42.98;73.32;;
49568;Laerm;35474;51.032;6.998;2024-01-06T09:03:20;65.15;48.83;73.45;;
49568;Laerm;35474;51.032;6.998;2024-01-06T09:05:54;63.60;47.04;79.74;;
49568;Laerm;35474;51.032;6.998;2024-01-06T09:08:21;66.20;44.58;73.57;;
49568;Laerm;35474;51.032;6.998;2024-01-06T09:10:48;66.76;52.54;74.32;;
49568;Laerm;35474;51.032;6.998;2024-01-06T09:13:18;66.86;49.66;75.67;;
49568;Laerm;35474;51.032;6.998;2024-01-06T09:15:44;64.56;45.63;82.38;;
49568;Laerm;35474;51.032;6.998;2024-01-06T09:18:11;63.52;42.98;72.89;;
49568;Laerm;35474;51.032;6.998;2024-01-06T09:20:40;65.41;44.58;78.32;;
49568;Laerm;35474;51.032;6.998;2024-01-06T09:23:06;65.92;44.76;74.82;;
49568;Laerm;35474;51.032;6.998;2024-01-06T09:25:33;65.78;49.32;71.70;;
49568;Laerm;35474;51.032;6.998;2024-01-06T09:28:00;66.02;47.40;72.67;;
49568;Laerm;35474;51.032;6.998;2024-01-06T09:30:27;66.20;42.82;84.69;;
49568;Laerm;35474;51.032;6.998;2024-01-06T09:32:54;65.25;45.23;78.31;;
49568;Laerm;35474;51.032;6.998;2024-01-06T09:35:20;65.63;50.61;73.60;;
49568;Laerm;35474;51.032;6.998;2024-01-06T09:37:47;65.95;50.88;81.60;;
49568;Laerm;35474;51.032;6.998;2024-01-06T09:40:21;65.59;49.20;73.84;;
49568;Laerm;35474;51.032;6.998;2024-01-06T09:42:49;67.15;48.66;74.94;;
49568;Laerm;35474;51.032;6.998;2024-01-06T09:45:16;64.22;46.89;72.55;;
49568;Laerm;35474;51.032;6.998;2024-01-06T09:47:48;65.54;48.99;74.75;;
49568;Laerm;35474;51.032;6.998;2024-01-06T09:50:18;65.90;51.06;73.43;;
49568;Laerm;35474;51.032;6.998;2024-01-06T09:52:48;66.38;48.64;73.81;;
49568;Laerm;35474;51.032;6.998;2024-01-06T09:55:25;66.53;55.53;73.38;;
49568;Laerm;35474;51.032;6.998;2024-01-06T09:57:53;67.32;53.57;78.10;;
49568;Laerm;35474;51.032;6.998;2024-01-06T10:00:21;66.75;47.16;72.97;;
49568;Laerm;35474;51.032;6.998;2024-01-06T10:02:48;67.05;48.80;74.21;;
49568;Laerm;35474;51.032;6.998;2024-01-06T10:05:16;66.42;47.22;74.42;;
49568;Laerm;35474;51.032;6.998;2024-01-06T10:07:44;65.84;44.83;75.22;;
49568;Laerm;35474;51.032;6.998;2024-01-06T10:10:11;67.15;45.30;79.44;;
49568;Laerm;35474;51.032;6.998;2024-01-06T10:12:39;66.94;52.17;74.74;;
49568;Laerm;35474;51.032;6.998;2024-01-06T10:15:11;67.28;53.94;73.66;;
49568;Laerm;35474;51.032;6.998;2024-01-06T10:17:40;66.97;57.67;73.55;;
49568;Laerm;35474;51.032;6.998;2024-01-06T10:20:11;64.83;44.80;81.84;;
49568;Laerm;35474;51.032;6.998;2024-01-06T10:22:41;66.97;45.45;81.17;;
49568;Laerm;35474;51.032;6.998;2024-01-06T10:25:10;67.92;45.14;88.70;;
49568;Laerm;35474;51.032;6.998;2024-01-06T10:27:38;67.21;56.24;73.86;;
49568;Laerm;35474;51.032;6.998;2024-01-06T10:30:08;66.62;48.15;73.52;;
49568;Laerm;35474;51.032;6.998;2024-01-06T10:32:36;66.81;48.43;76.77;;
49568;Laerm;35474;51.032;6.998;2024-01-06T10:35:03;66.20;51.05;82.33;;
49568;Laerm;35474;51.032;6.998;2024-01-06T10:37:32;67.11;55.50;78.16;;
49568;Laerm;35474;51.032;6.998;2024-01-06T10:40:12;65.32;45.86;73.98;;
49568;Laerm;35474;51.032;6.998;2024-01-06T10:42:41;67.63;55.58;75.30;;
49568;Laerm;35474;51.032;6.998;2024-01-06T10:45:11;67.10;56.61;74.17;;
49568;Laerm;35474;51.032;6.998;2024-01-06T10:47:42;67.54;56.78;79.31;;
49568;Laerm;35474;51.032;6.998;2024-01-06T10:50:10;67.80;52.67;79.21;;
49568;Laerm;35474;51.032;6.998;2024-01-06T10:52:39;66.47;48.63;73.73;;
49568;Laerm;35474;51.032;6.998;2024-01-06T10:55:10;66.73;54.22;78.75;;
49568;Laerm;35474;51.032;6.998;2024-01-06T10:57:38;66.98;50.06;72.14;;
49568;Laerm;35474;51.032;6.998;2024-01-06T11:00:05;67.59;55.62;72.50;;
49568;Laerm;35474;51.032;6.998;2024-01-06T11:02:33;66.05;47.02;75.50;;
49568;Laerm;35474;51.032;6.998;2024-01-06T11:05:02;67.79;47.24;74.83;;
49568;Laerm;35474;51.032;6.998;2024-01-06T11:07:30;67.83;53.89;76.31;;
49568;Laerm;35474;51.032;6.998;2024-01-06T11:12:25;67.09;53.79;72.48;;
49568;Laerm;35474;51.032;6.998;2024-01-06T11:14:55;67.32;44.62;83.31;;
49568;Laerm;35474;51.032;6.998;2024-01-06T11:17:53;67.77;52.44;82.61;;
49568;Laerm;35474;51.032;6.998;2024-01-06T11:20:25;67.32;49.00;74.61;;
49568;Laerm;35474;51.032;6.998;2024-01-06T11:22:53;66.98;53.12;82.57;;
49568;Laerm;35474;51.032;6.998;2024-01-06T11:25:21;66.78;58.55;73.48;;
49568;Laerm;35474;51.032;6.998;2024-01-06T11:27:50;66.10;46.78;72.58;;
49568;Laerm;35474;51.032;6.998;2024-01-06T11:30:23;66.87;52.63;76.66;;
49568;Laerm;35474;51.032;6.998;2024-01-06T11:32:53;67.43;52.64;78.02;;
49568;Laerm;35474;51.032;6.998;2024-01-06T11:35:21;65.54;46.52;74.70;;
49568;Laerm;35474;51.032;6.998;2024-01-06T11:40:24;67.41;53.36;74.55;;
49568;Laerm;35474;51.032;6.998;2024-01-06T11:43:02;65.91;51.59;72.81;;
49568;Laerm;35474;51.032;6.998;2024-01-06T11:45:29;65.44;48.25;74.16;;
49568;Laerm;35474;51.032;6.998;2024-01-06T11:47:58;67.19;54.78;73.88;;
49568;Laerm;35474;51.032;6.998;2024-01-06T11:50:34;66.34;47.24;76.31;;
49568;Laerm;35474;51.032;6.998;2024-01-06T11:53:02;68.02;50.18;79.00;;
49568;Laerm;35474;51.032;6.998;2024-01-06T11:55:29;68.01;60.00;78.17;;
49568;Laerm;35474;51.032;6.998;2024-01-06T11:57:58;67.20;47.57;73.72;;
49568;Laerm;35474;51.032;6.998;2024-01-06T12:00:29;67.48;46.35;74.12;;
49568;Laerm;35474;51.032;6.998;2024-01-06T12:02:57;66.95;55.56;85.83;;
49568;Laerm;35474;51.032;6.998;2024-01-06T12:05:24;67.42;45.89;81.32;;
49568;Laerm;35474;51.032;6.998;2024-01-06T12:07:57;66.61;48.00;75.59;;
49568;Laerm;35474;51.032;6.998;2024-01-06T12:10:25;65.67;49.74;74.23;;
49568;Laerm;35474;51.032;6.998;2024-01-06T12:13:11;67.45;58.12;82.63;;
49568;Laerm;35474;51.032;6.998;2024-01-06T12:15:41;67.12;55.98;81.67;;
49568;Laerm;35474;51.032;6.998;2024-01-06T12:18:07;68.00;53.49;84.07;;
49568;Laerm;35474;51.032;6.998;2024-01-06T12:20:34;67.30;53.45;78.96;;
49568;Laerm;35474;51.032;6.998;2024-01-06T12:23:01;65.49;46.97;75.28;;
49568;Laerm;35474;51.032;6.998;2024-01-06T12:25:32;69.77;51.16;90.04;;
49568;Laerm;35474;51.032;6.998;2024-01-06T12:28:06;64.74;47.67;72.14;;
49568;Laerm;35474;51.032;6.998;2024-01-06T12:30:33;66.09;50.69;73.58;;
49568;Laerm;35474;51.032;6.998;2024-01-06T12:33:00;66.84;54.92;73.19;;
49568;Laerm;35474;51.032;6.998;2024-01-06T12:35:27;67.17;55.43;74.43;;
49568;Laerm;35474;51.032;6.998;2024-01-06T12:37:54;67.18;52.85;72.63;;
49568;Laerm;35474;51.032;6.998;2024-01-06T12:40:22;66.08;53.55;72.90;;
49568;Laerm;35474;51.032;6.998;2024-01-06T12:42:51;66.33;58.83;72.19;;
49568;Laerm;35474;51.032;6.998;2024-01-06T12:45:18;67.31;50.81;73.26;;
49568;Laerm;35474;51.032;6.998;2024-01-06T12:47:44;66.95;60.72;72.80;;
49568;Laerm;35474;51.032;6.998;2024-01-06T12:50:11;67.44;58.34;74.27;;
49568;Laerm;35474;51.032;6.998;2024-01-06T12:52:38;67.57;58.51;77.21;;
49568;Laerm;35474;51.032;6.998;2024-01-06T12:55:06;65.71;55.55;75.75;;
49568;Laerm;35474;51.032;6.998;2024-01-06T12:57:33;66.65;53.24;74.66;;
49568;Laerm;35474;51.032;6.998;2024-01-06T13:00:00;67.45;53.20;82.50;;
49568;Laerm;35474;51.032;6.998;2024-01-06T13:02:30;68.41;53.72;81.07;;
49568;Laerm;35474;51.032;6.998;2024-01-06T13:04:57;65.30;47.79;70.75;;
49568;Laerm;35474;51.032;6.998;2024-01-06T13:07:24;76.75;50.56;97.11;;
49568;Laerm;35474;51.032;6.998;2024-01-06T13:09:54;68.70;62.47;79.84;;
49568;Laerm;35474;51.032;6.998;2024-01-06T13:12:20;68.33;53.18;83.72;;
49568;Laerm;35474;51.032;6.998;2024-01-06T13:14:49;66.42;50.56;78.29;;
49568;Laerm;35474;51.032;6.998;2024-01-06T13:17:17;67.41;57.24;74.13;;
49568;Laerm;35474;51.032;6.998;2024-01-06T13:19:43;67.91;58.78;72.99;;
49568;Laerm;35474;51.032;6.998;2024-01-06T13:22:10;66.19;50.65;72.32;;
49568;Laerm;35474;51.032;6.998;2024-01-06T13:24:37;67.24;52.49;75.52;;
49568;Laerm;35474;51.032;6.998;2024-01-06T13:27:04;66.76;49.89;77.41;;
49568;Laerm;35474;51.032;6.998;2024-01-06T13:29:31;67.03;49.00;77.40;;
49568;Laerm;35474;51.032;6.998;2024-01-06T13:31:59;65.30;46.02;73.28;;
49568;Laerm;35474;51.032;6.998;2024-01-06T13:34:26;65.71;50.08;71.46;;
49568;Laerm;35474;51.032;6.998;2024-01-06T13:36:53;66.17;52.09;73.06;;
49568;Laerm;35474;51.032;6.998;2024-01-06T13:39:23;66.15;52.92;73.91;;
49568;Laerm;35474;51.032;6.998;2024-01-06T13:41:50;66.16;49.70;75.04;;
49568;Laerm;35474;51.032;6.998;2024-01-06T13:44:18;66.45;49.74;73.12;;
49568;Laerm;35474;51.032;6.998;2024-01-06T13:46:44;65.89;56.30;72.50;;
49568;Laerm;35474;51.032;6.998;2024-01-06T13:49:12;65.67;48.26;72.04;;
49568;Laerm;35474;51.032;6.998;2024-01-06T13:51:39;65.81;47.93;73.35;;
49568;Laerm;35474;51.032;6.998;2024-01-06T13:54:06;67.01;52.15;74.61;;
49568;Laerm;35474;51.032;6.998;2024-01-06T13:56:33;66.13;45.63;73.89;;
49568;Laerm;35474;51.032;6.998;2024-01-06T13:59:00;66.50;54.95;79.75;;
49568;Laerm;35474;51.032;6.998;2024-01-06T14:01:27;65.97;53.31;75.62;;